sensor_id;sensor_type;location;lat;lon;timestamp;pressure;altitude;pressure_sealevel;temperature;humidity
706;BME280;21234;48.690;9.016;2023-03-16T00:01:45;96437.41;;;0.21;100.00
706;BME280;21234;48.690;9.016;2023-03-16T00:04:12;96440.13;;;0.13;100.00
706;BME280;21234;48.690;9.016;2023-03-16T00:06:39;96426.59;;;0.14;100.00
706;BME280;21234;48.690;9.016;2023-03-16T00:09:06;96433.72;;;0.22;100.00
706;BME280;21234;48.690;9.016;2023-03-16T00:11:35;96428.91;;;0.17;100.00
706;BME280;21234;48.690;9.016;2023-03-16T00:14:02;96435.81;;;0.12;100.00
706;BME280;21234;48.690;9.016;2023-03-16T00:16:29;96435.44;;;0.15;100.00
706;BME280;21234;48.690;9.016;2023-03-16T00:18:56;96432.84;;;0.07;100.00
706;BME280;21234;48.690;9.016;2023-03-16T00:21:23;96438.47;;;0.12;100.00
706;BME280;21234;48.690;9.016;2023-03-16T00:23:50;96428.13;;;0.09;100.00
706;BME280;21234;48.690;9.016;2023-03-16T00:26:17;96434.59;;;-0.01;100.00
706;BME280;21234;48.690;9.016;2023-03-16T00:28:45;96437.25;;;-0.01;100.00
706;BME280;21234;48.690;9.016;2023-03-16T00:31:13;96427.13;;;-0.05;100.00
706;BME280;21234;48.690;9.016;2023-03-16T00:33:41;96434.13;;;-0.04;100.00
706;BME280;21234;48.690;9.016;2023-03-16T00:36:08;96439.00;;;0.07;100.00
706;BME280;21234;48.690;9.016;2023-03-16T00:38:37;96434.03;;;0.04;100.00
706;BME280;21234;48.690;9.016;2023-03-16T00:41:06;96437.34;;;0.06;100.00
706;BME280;21234;48.690;9.016;2023-03-16T00:43:35;96437.06;;;0.01;100.00
706;BME280;21234;48.690;9.016;2023-03-16T00:46:07;96436.44;;;-0.01;100.00
706;BME280;21234;48.690;9.016;2023-03-16T00:48:35;96440.84;;;-0.08;100.00
706;BME280;21234;48.690;9.016;2023-03-16T00:51:02;96436.63;;;-0.03;100.00
706;BME280;21234;48.690;9.016;2023-03-16T00:53:31;96420.94;;;0.09;100.00
706;BME280;21234;48.690;9.016;2023-03-16T00:55:58;96429.69;;;0.03;100.00
706;BME280;21234;48.690;9.016;2023-03-16T00:58:28;96430.69;;;0.02;100.00
706;BME280;21234;48.690;9.016;2023-03-16T01:00:55;96425.94;;;-0.03;100.00
706;BME280;21234;48.690;9.016;2023-03-16T01:03:25;96429.00;;;-0.14;100.00
706;BME280;21234;48.690;9.016;2023-03-16T01:05:52;96424.81;;;0.07;100.00
706;BME280;21234;48.690;9.016;2023-03-16T01:08:18;96426.00;;;0.04;100.00
706;BME280;21234;48.690;9.016;2023-03-16T01:10:46;96420.13;;;0.09;100.00
706;BME280;21234;48.690;9.016;2023-03-16T01:13:13;96421.59;;;0.11;100.00
706;BME280;21234;48.690;9.016;2023-03-16T01:15:40;96419.09;;;0.10;100.00
706;BME280;21234;48.690;9.016;2023-03-16T01:18:10;96411.91;;;0.10;100.00
706;BME280;21234;48.690;9.016;2023-03-16T01:20:39;96423.81;;;0.08;100.00
706;BME280;21234;48.690;9.016;2023-03-16T01:23:12;96416.25;;;-0.04;100.00
706;BME280;21234;48.690;9.016;2023-03-16T01:25:38;96420.75;;;-0.04;100.00
706;BME280;21234;48.690;9.016;2023-03-16T01:28:06;96420.94;;;-0.06;100.00
706;BME280;21234;48.690;9.016;2023-03-16T01:30:33;96416.78;;;-0.08;100.00
706;BME280;21234;48.690;9.016;2023-03-16T01:33:00;96421.41;;;-0.02;100.00
706;BME280;21234;48.690;9.016;2023-03-16T01:35:27;96426.53;;;-0.15;100.00
706;BME280;21234;48.690;9.016;2023-03-16T01:37:56;96423.84;;;-0.15;100.00
706;BME280;21234;48.690;9.016;2023-03-16T01:40:22;96412.22;;;-0.22;100.00
706;BME280;21234;48.690;9.016;2023-03-16T01:42:59;96409.00;;;-0.18;100.00
706;BME280;21234;48.690;9.016;2023-03-16T01:48:46;96417.25;;;-0.27;100.00
706;BME280;21234;48.690;9.016;2023-03-16T01:51:18;96408.16;;;-0.33;100.00
706;BME280;21234;48.690;9.016;2023-03-16T01:53:49;96408.84;;;-0.39;100.00
706;BME280;21234;48.690;9.016;2023-03-16T01:56:21;96407.72;;;-0.45;100.00
706;BME280;21234;48.690;9.016;2023-03-16T01:58:50;96406.72;;;-0.44;100.00
706;BME280;21234;48.690;9.016;2023-03-16T02:01:18;96408.03;;;-0.40;100.00
706;BME280;21234;48.690;9.016;2023-03-16T02:03:45;96403.81;;;-0.34;100.00
706;BME280;21234;48.690;9.016;2023-03-16T02:06:15;96407.50;;;-0.35;100.00
706;BME280;21234;48.690;9.016;2023-03-16T02:08:46;96404.25;;;-0.30;100.00
706;BME280;21234;48.690;9.016;2023-03-16T02:11:15;96393.75;;;-0.32;100.00
706;BME280;21234;48.690;9.016;2023-03-16T02:13:43;96393.75;;;-0.32;100.00
706;BME280;21234;48.690;9.016;2023-03-16T02:16:11;96385.19;;;-0.27;100.00
706;BME280;21234;48.690;9.016;2023-03-16T02:18:44;96385.13;;;-0.34;100.00
706;BME280;21234;48.690;9.016;2023-03-16T02:21:14;96382.16;;;-0.39;100.00
706;BME280;21234;48.690;9.016;2023-03-16T02:23:45;96379.78;;;-0.34;100.00
706;BME280;21234;48.690;9.016;2023-03-16T02:26:20;96378.66;;;-0.25;100.00
706;BME280;21234;48.690;9.016;2023-03-16T02:28:59;96374.44;;;-0.19;100.00
706;BME280;21234;48.690;9.016;2023-03-16T02:31:33;96372.59;;;-0.19;100.00
706;BME280;21234;48.690;9.016;2023-03-16T02:34:00;96388.56;;;-0.11;100.00
706;BME280;21234;48.690;9.016;2023-03-16T02:36:28;96382.03;;;-0.08;100.00
706;BME280;21234;48.690;9.016;2023-03-16T02:38:55;96382.41;;;0.04;100.00
706;BME280;21234;48.690;9.016;2023-03-16T02:41:22;96393.28;;;-0.13;100.00
706;BME280;21234;48.690;9.016;2023-03-16T02:43:52;96391.97;;;-0.17;100.00
706;BME280;21234;48.690;9.016;2023-03-16T02:46:22;96380.31;;;-0.01;100.00
706;BME280;21234;48.690;9.016;2023-03-16T02:48:58;96380.75;;;-0.12;100.00
706;BME280;21234;48.690;9.016;2023-03-16T02:51:29;96382.28;;;-0.18;100.00
706;BME280;21234;48.690;9.016;2023-03-16T02:53:57;96380.34;;;-0.24;100.00
706;BME280;21234;48.690;9.016;2023-03-16T02:56:23;96380.34;;;-0.24;100.00
706;BME280;21234;48.690;9.016;2023-03-16T02:58:50;96376.34;;;-0.28;100.00
706;BME280;21234;48.690;9.016;2023-03-16T03:01:17;96363.44;;;-0.39;100.00
706;BME280;21234;48.690;9.016;2023-03-16T03:03:44;96359.53;;;-0.51;100.00
706;BME280;21234;48.690;9.016;2023-03-16T03:06:12;96351.56;;;-0.59;100.00
706;BME280;21234;48.690;9.016;2023-03-16T03:08:38;96364.75;;;-0.58;100.00
706;BME280;21234;48.690;9.016;2023-03-16T03:11:05;96370.44;;;-0.61;100.00
706;BME280;21234;48.690;9.016;2023-03-16T03:13:32;96359.72;;;-0.53;100.00
706;BME280;21234;48.690;9.016;2023-03-16T03:15:58;96358.88;;;-0.53;100.00
706;BME280;21234;48.690;9.016;2023-03-16T03:18:26;96352.53;;;-0.52;100.00
706;BME280;21234;48.690;9.016;2023-03-16T03:20:53;96359.19;;;-0.48;100.00
706;BME280;21234;48.690;9.016;2023-03-16T03:23:21;96346.13;;;-0.43;100.00
706;BME280;21234;48.690;9.016;2023-03-16T03:25:47;96362.09;;;-0.35;100.00
706;BME280;21234;48.690;9.016;2023-03-16T03:28:14;96361.34;;;-0.29;100.00
706;BME280;21234;48.690;9.016;2023-03-16T03:30:41;96355.56;;;-0.32;100.00
706;BME280;21234;48.690;9.016;2023-03-16T03:33:08;96352.50;;;-0.29;100.00
706;BME280;21234;48.690;9.016;2023-03-16T03:35:34;96346.88;;;-0.35;100.00
706;BME280;21234;48.690;9.016;2023-03-16T03:38:01;96331.03;;;-0.36;100.00
706;BME280;21234;48.690;9.016;2023-03-16T03:40:29;96331.88;;;-0.36;100.00
706;BME280;21234;48.690;9.016;2023-03-16T03:42:56;96347.72;;;-0.34;100.00
706;BME280;21234;48.690;9.016;2023-03-16T03:45:23;96344.16;;;-0.49;100.00
706;BME280;21234;48.690;9.016;2023-03-16T03:47:49;96338.28;;;-0.45;100.00
706;BME280;21234;48.690;9.016;2023-03-16T03:50:16;96339.22;;;-0.38;100.00
706;BME280;21234;48.690;9.016;2023-03-16T03:52:43;96345.81;;;-0.48;100.00
706;BME280;21234;48.690;9.016;2023-03-16T03:55:11;96340.19;;;-0.53;100.00
706;BME280;21234;48.690;9.016;2023-03-16T03:57:39;96325.09;;;-0.46;100.00
706;BME280;21234;48.690;9.016;2023-03-16T04:00:07;96337.66;;;-0.32;100.00
706;BME280;21234;48.690;9.016;2023-03-16T04:02:36;96336.63;;;-0.31;100.00
706;BME280;21234;48.690;9.016;2023-03-16T04:05:03;96334.19;;;-0.32;100.00
706;BME280;21234;48.690;9.016;2023-03-16T04:07:30;96329.75;;;-0.25;100.00
706;BME280;21234;48.690;9.016;2023-03-16T04:09:56;96332.03;;;-0.37;100.00
706;BME280;21234;48.690;9.016;2023-03-16T04:12:29;96337.75;;;-0.40;100.00
706;BME280;21234;48.690;9.016;2023-03-16T04:14:57;96340.25;;;-0.39;100.00
706;BME280;21234;48.690;9.016;2023-03-16T04:17:24;96343.00;;;-0.32;100.00
706;BME280;21234;48.690;9.016;2023-03-16T04:19:51;96328.44;;;-0.44;100.00
706;BME280;21234;48.690;9.016;2023-03-16T04:22:17;96331.75;;;-0.42;100.00
706;BME280;21234;48.690;9.016;2023-03-16T04:24:47;96326.59;;;-0.44;100.00
706;BME280;21234;48.690;9.016;2023-03-16T04:27:14;96320.41;;;-0.44;100.00
706;BME280;21234;48.690;9.016;2023-03-16T04:29:40;96321.25;;;-0.44;100.00
706;BME280;21234;48.690;9.016;2023-03-16T04:32:09;96331.75;;;-0.42;100.00
706;BME280;21234;48.690;9.016;2023-03-16T04:34:36;96317.75;;;-0.44;100.00
706;BME280;21234;48.690;9.016;2023-03-16T04:37:06;96316.63;;;-0.50;100.00
706;BME280;21234;48.690;9.016;2023-03-16T04:39:32;96319.59;;;-0.45;100.00
706;BME280;21234;48.690;9.016;2023-03-16T04:41:59;96320.53;;;-0.38;100.00
706;BME280;21234;48.690;9.016;2023-03-16T04:44:26;96325.69;;;-0.36;100.00
706;BME280;21234;48.690;9.016;2023-03-16T04:46:53;96322.09;;;-0.43;100.00
706;BME280;21234;48.690;9.016;2023-03-16T04:49:21;96318.69;;;-0.37;100.00
706;BME280;21234;48.690;9.016;2023-03-16T04:51:47;96316.66;;;-0.35;100.00
706;BME280;21234;48.690;9.016;2023-03-16T04:54:14;96312.69;;;-0.39;100.00
706;BME280;21234;48.690;9.016;2023-03-16T04:56:41;96306.94;;;-0.51;100.00
706;BME280;21234;48.690;9.016;2023-03-16T04:59:08;96308.97;;;-0.53;100.00
706;BME280;21234;48.690;9.016;2023-03-16T05:01:35;96318.53;;;-0.58;100.00
706;BME280;21234;48.690;9.016;2023-03-16T05:04:02;96314.38;;;-0.61;100.00
706;BME280;21234;48.690;9.016;2023-03-16T05:06:30;96318.25;;;-0.86;100.00
706;BME280;21234;48.690;9.016;2023-03-16T05:08:58;96307.34;;;-0.99;100.00
706;BME280;21234;48.690;9.016;2023-03-16T05:11:25;96307.06;;;-1.05;100.00
706;BME280;21234;48.690;9.016;2023-03-16T05:13:52;96313.44;;;-0.91;100.00
706;BME280;21234;48.690;9.016;2023-03-16T05:16:18;96311.78;;;-0.92;100.00
706;BME280;21234;48.690;9.016;2023-03-16T05:18:45;96308.47;;;-1.17;100.00
706;BME280;21234;48.690;9.016;2023-03-16T05:21:12;96309.63;;;-0.96;100.00
706;BME280;21234;48.690;9.016;2023-03-16T05:23:40;96310.72;;;-1.06;100.00
706;BME280;21234;48.690;9.016;2023-03-16T05:26:06;96316.53;;;-1.02;100.00
706;BME280;21234;48.690;9.016;2023-03-16T05:28:33;96315.06;;;-1.05;100.00
706;BME280;21234;48.690;9.016;2023-03-16T05:31:00;96314.53;;;-1.00;100.00
706;BME280;21234;48.690;9.016;2023-03-16T05:33:28;96314.44;;;-0.92;100.00
706;BME280;21234;48.690;9.016;2023-03-16T05:35:54;96311.88;;;-1.00;100.00
706;BME280;21234;48.690;9.016;2023-03-16T05:38:22;96312.38;;;-1.05;100.00
706;BME280;21234;48.690;9.016;2023-03-16T05:40:50;96308.00;;;-0.97;100.00
706;BME280;21234;48.690;9.016;2023-03-16T05:43:18;96309.47;;;-0.95;100.00
706;BME280;21234;48.690;9.016;2023-03-16T05:45:45;96311.13;;;-0.94;100.00
706;BME280;21234;48.690;9.016;2023-03-16T05:48:12;96310.19;;;-1.01;100.00
706;BME280;21234;48.690;9.016;2023-03-16T05:50:40;96303.56;;;-1.05;100.00
706;BME280;21234;48.690;9.016;2023-03-16T05:53:07;96309.03;;;-0.98;100.00
706;BME280;21234;48.690;9.016;2023-03-16T05:55:34;96302.25;;;-0.86;100.00
706;BME280;21234;48.690;9.016;2023-03-16T05:58:02;96301.09;;;-0.92;100.00
706;BME280;21234;48.690;9.016;2023-03-16T06:00:28;96295.78;;;-0.92;100.00
706;BME280;21234;48.690;9.016;2023-03-16T06:02:55;96302.31;;;-0.72;100.00
706;BME280;21234;48.690;9.016;2023-03-16T06:05:22;96295.88;;;-0.85;100.00
706;BME280;21234;48.690;9.016;2023-03-16T06:07:49;96290.78;;;-0.95;100.00
706;BME280;21234;48.690;9.016;2023-03-16T06:10:17;96296.50;;;-0.98;100.00
706;BME280;21234;48.690;9.016;2023-03-16T06:12:44;96294.94;;;-0.70;100.00
706;BME280;21234;48.690;9.016;2023-03-16T06:15:12;96290.94;;;-0.51;100.00
706;BME280;21234;48.690;9.016;2023-03-16T06:17:39;96295.50;;;-0.59;100.00
706;BME280;21234;48.690;9.016;2023-03-16T06:20:08;96303.81;;;-0.54;100.00
706;BME280;21234;48.690;9.016;2023-03-16T06:22:37;96298.88;;;-0.28;99.24
706;BME280;21234;48.690;9.016;2023-03-16T06:25:06;96299.19;;;-0.08;98.22
706;BME280;21234;48.690;9.016;2023-03-16T06:27:34;96310.16;;;-0.03;97.78
706;BME280;21234;48.690;9.016;2023-03-16T06:30:01;96310.16;;;-0.03;97.64
706;BME280;21234;48.690;9.016;2023-03-16T06:32:29;96304.19;;;0.24;96.96
706;BME280;21234;48.690;9.016;2023-03-16T06:34:56;96305.31;;;0.66;94.90
706;BME280;21234;48.690;9.016;2023-03-16T06:37:24;96303.16;;;0.76;93.51
706;BME280;21234;48.690;9.016;2023-03-16T06:39:50;96296.69;;;1.07;92.55
706;BME280;21234;48.690;9.016;2023-03-16T06:42:17;96306.38;;;1.08;91.80
706;BME280;21234;48.690;9.016;2023-03-16T06:44:44;96306.09;;;1.17;91.74
706;BME280;21234;48.690;9.016;2023-03-16T06:47:10;96300.22;;;1.07;93.34
706;BME280;21234;48.690;9.016;2023-03-16T06:49:39;96299.81;;;1.53;92.64
706;BME280;21234;48.690;9.016;2023-03-16T06:52:05;96295.03;;;2.93;86.33
706;BME280;21234;48.690;9.016;2023-03-16T06:54:34;96302.84;;;3.82;81.25
706;BME280;21234;48.690;9.016;2023-03-16T06:57:02;96302.84;;;3.82;79.80
706;BME280;21234;48.690;9.016;2023-03-16T06:59:28;96310.50;;;3.52;79.51
706;BME280;21234;48.690;9.016;2023-03-16T07:01:55;96306.84;;;2.98;80.65
706;BME280;21234;48.690;9.016;2023-03-16T07:04:22;96309.88;;;3.56;80.72
706;BME280;21234;48.690;9.016;2023-03-16T07:06:50;96303.72;;;4.73;76.14
706;BME280;21234;48.690;9.016;2023-03-16T07:09:17;96308.34;;;5.73;70.48
706;BME280;21234;48.690;9.016;2023-03-16T07:11:44;96308.03;;;6.56;66.91
706;BME280;21234;48.690;9.016;2023-03-16T07:14:10;96306.25;;;6.68;64.05
706;BME280;21234;48.690;9.016;2023-03-16T07:16:37;96299.16;;;7.04;63.18
706;BME280;21234;48.690;9.016;2023-03-16T07:19:04;96305.44;;;7.16;61.21
706;BME280;21234;48.690;9.016;2023-03-16T07:21:31;96302.19;;;7.97;58.30
706;BME280;21234;48.690;9.016;2023-03-16T07:24:05;96300.94;;;8.70;55.76
706;BME280;21234;48.690;9.016;2023-03-16T07:26:33;96304.47;;;8.70;55.08
706;BME280;21234;48.690;9.016;2023-03-16T07:28:59;96315.28;;;8.24;56.98
706;BME280;21234;48.690;9.016;2023-03-16T07:31:29;96313.03;;;8.09;56.96
706;BME280;21234;48.690;9.016;2023-03-16T07:33:56;96312.56;;;7.59;58.66
706;BME280;21234;48.690;9.016;2023-03-16T07:36:23;96313.53;;;7.64;58.98
706;BME280;21234;48.690;9.016;2023-03-16T07:38:50;96316.16;;;8.36;56.47
706;BME280;21234;48.690;9.016;2023-03-16T07:41:18;96304.00;;;8.73;55.91
706;BME280;21234;48.690;9.016;2023-03-16T07:43:45;96324.50;;;8.34;57.38
706;BME280;21234;48.690;9.016;2023-03-16T07:46:12;96313.78;;;8.51;56.53
706;BME280;21234;48.690;9.016;2023-03-16T07:48:39;96309.28;;;8.92;55.62
706;BME280;21234;48.690;9.016;2023-03-16T07:51:06;96305.38;;;9.39;54.68
706;BME280;21234;48.690;9.016;2023-03-16T07:53:33;96308.16;;;10.35;50.97
706;BME280;21234;48.690;9.016;2023-03-16T07:56:00;96306.94;;;10.81;48.82
706;BME280;21234;48.690;9.016;2023-03-16T07:58:28;96304.97;;;10.76;49.50
706;BME280;21234;48.690;9.016;2023-03-16T08:00:56;96309.69;;;11.03;48.35
706;BME280;21234;48.690;9.016;2023-03-16T08:03:23;96311.41;;;11.31;47.01
706;BME280;21234;48.690;9.016;2023-03-16T08:05:49;96309.34;;;11.65;46.60
706;BME280;21234;48.690;9.016;2023-03-16T08:08:16;96308.28;;;12.20;45.25
706;BME280;21234;48.690;9.016;2023-03-16T08:10:46;96310.03;;;12.36;44.33
706;BME280;21234;48.690;9.016;2023-03-16T08:13:13;96314.63;;;12.67;45.19
706;BME280;21234;48.690;9.016;2023-03-16T08:15:44;96315.22;;;12.74;43.69
706;BME280;21234;48.690;9.016;2023-03-16T08:18:12;96315.19;;;12.69;43.67
706;BME280;21234;48.690;9.016;2023-03-16T08:20:38;96309.22;;;11.55;45.48
706;BME280;21234;48.690;9.016;2023-03-16T08:23:06;96309.88;;;10.58;47.21
706;BME280;21234;48.690;9.016;2023-03-16T08:25:32;96306.84;;;9.19;50.59
706;BME280;21234;48.690;9.016;2023-03-16T08:27:59;96304.19;;;8.84;51.84
706;BME280;21234;48.690;9.016;2023-03-16T08:30:26;96315.66;;;8.51;54.15
706;BME280;21234;48.690;9.016;2023-03-16T08:32:56;96299.44;;;7.74;56.87
706;BME280;21234;48.690;9.016;2023-03-16T08:35:23;96299.41;;;7.32;58.25
706;BME280;21234;48.690;9.016;2023-03-16T08:37:50;96297.81;;;6.95;58.75
706;BME280;21234;48.690;9.016;2023-03-16T08:40:17;96291.53;;;6.64;59.27
706;BME280;21234;48.690;9.016;2023-03-16T08:42:46;96288.50;;;6.91;60.38
706;BME280;21234;48.690;9.016;2023-03-16T08:45:15;96283.94;;;7.21;60.40
706;BME280;21234;48.690;9.016;2023-03-16T08:47:44;96281.22;;;7.10;59.58
706;BME280;21234;48.690;9.016;2023-03-16T08:50:12;96274.53;;;7.42;60.56
706;BME280;21234;48.690;9.016;2023-03-16T08:52:40;96272.78;;;6.69;59.59
706;BME280;21234;48.690;9.016;2023-03-16T08:55:07;96282.78;;;6.26;61.72
706;BME280;21234;48.690;9.016;2023-03-16T08:57:35;96281.22;;;6.55;63.72
706;BME280;21234;48.690;9.016;2023-03-16T09:00:04;96284.38;;;6.52;63.11
706;BME280;21234;48.690;9.016;2023-03-16T09:02:37;96284.91;;;6.42;63.24
706;BME280;21234;48.690;9.016;2023-03-16T09:05:07;96289.06;;;6.81;64.62
706;BME280;21234;48.690;9.016;2023-03-16T09:07:35;96284.09;;;6.78;63.15
706;BME280;21234;48.690;9.016;2023-03-16T09:10:04;96285.28;;;6.64;63.73
706;BME280;21234;48.690;9.016;2023-03-16T09:12:34;96279.47;;;6.49;62.29
706;BME280;21234;48.690;9.016;2023-03-16T09:15:00;96271.09;;;6.50;62.10
706;BME280;21234;48.690;9.016;2023-03-16T09:17:27;96266.78;;;6.49;63.06
706;BME280;21234;48.690;9.016;2023-03-16T09:19:54;96264.28;;;6.29;63.36
706;BME280;21234;48.690;9.016;2023-03-16T09:22:21;96264.88;;;6.86;64.98
706;BME280;21234;48.690;9.016;2023-03-16T09:24:50;96263.75;;;6.39;62.07
706;BME280;21234;48.690;9.016;2023-03-16T09:27:17;96269.16;;;6.76;63.74
706;BME280;21234;48.690;9.016;2023-03-16T09:29:45;96269.75;;;6.96;62.30
706;BME280;21234;48.690;9.016;2023-03-16T09:32:13;96272.75;;;7.36;63.30
706;BME280;21234;48.690;9.016;2023-03-16T09:34:40;96281.81;;;6.93;59.92
706;BME280;21234;48.690;9.016;2023-03-16T09:37:07;96273.09;;;7.39;62.67
706;BME280;21234;48.690;9.016;2023-03-16T09:39:34;96268.47;;;7.70;60.13
706;BME280;21234;48.690;9.016;2023-03-16T09:42:08;96273.59;;;7.48;61.19
706;BME280;21234;48.690;9.016;2023-03-16T09:44:45;96260.63;;;7.38;59.14
706;BME280;21234;48.690;9.016;2023-03-16T09:47:14;96250.50;;;7.04;59.72
706;BME280;21234;48.690;9.016;2023-03-16T09:49:43;96255.25;;;6.90;60.03
706;BME280;21234;48.690;9.016;2023-03-16T09:52:22;96238.78;;;6.80;61.01
706;BME280;21234;48.690;9.016;2023-03-16T09:54:55;96239.81;;;6.79;59.64
706;BME280;21234;48.690;9.016;2023-03-16T09:57:27;96234.69;;;7.19;61.81
706;BME280;21234;48.690;9.016;2023-03-16T09:59:57;96243.91;;;7.00;60.90
706;BME280;21234;48.690;9.016;2023-03-16T10:02:43;96242.47;;;6.97;59.64
706;BME280;21234;48.690;9.016;2023-03-16T10:05:14;96246.91;;;6.92;59.08
706;BME280;21234;48.690;9.016;2023-03-16T10:07:50;96246.72;;;6.75;60.60
706;BME280;21234;48.690;9.016;2023-03-16T10:10:37;96249.47;;;7.05;62.12
706;BME280;21234;48.690;9.016;2023-03-16T10:15:44;96246.44;;;7.55;57.82
706;BME280;21234;48.690;9.016;2023-03-16T10:18:15;96256.53;;;8.01;60.00
706;BME280;21234;48.690;9.016;2023-03-16T10:20:44;96254.72;;;7.83;55.42
706;BME280;21234;48.690;9.016;2023-03-16T10:23:16;96240.25;;;7.89;56.87
706;BME280;21234;48.690;9.016;2023-03-16T10:25:46;96228.38;;;7.90;55.27
706;BME280;21234;48.690;9.016;2023-03-16T10:28:16;96229.69;;;8.23;57.08
706;BME280;21234;48.690;9.016;2023-03-16T10:30:44;96230.88;;;8.38;56.19
706;BME280;21234;48.690;9.016;2023-03-16T10:33:19;96242.66;;;8.44;54.47
706;BME280;21234;48.690;9.016;2023-03-16T10:35:52;96241.44;;;8.17;52.63
706;BME280;21234;48.690;9.016;2023-03-16T10:38:29;96233.00;;;8.36;54.91
706;BME280;21234;48.690;9.016;2023-03-16T10:40:58;96230.75;;;7.98;53.20
706;BME280;21234;48.690;9.016;2023-03-16T10:43:27;96215.19;;;8.29;55.50
706;BME280;21234;48.690;9.016;2023-03-16T10:46:00;96215.78;;;8.54;55.57
706;BME280;21234;48.690;9.016;2023-03-16T10:48:30;96211.31;;;8.25;52.40
706;BME280;21234;48.690;9.016;2023-03-16T10:51:02;96194.47;;;8.46;54.40
706;BME280;21234;48.690;9.016;2023-03-16T10:53:34;96204.03;;;8.37;52.55
706;BME280;21234;48.690;9.016;2023-03-16T10:56:09;96197.75;;;8.60;52.79
706;BME280;21234;48.690;9.016;2023-03-16T10:58:41;96197.88;;;8.93;54.20
706;BME280;21234;48.690;9.016;2023-03-16T11:01:16;96203.31;;;8.82;52.60
706;BME280;21234;48.690;9.016;2023-03-16T11:03:48;96206.81;;;8.65;52.31
706;BME280;21234;48.690;9.016;2023-03-16T11:06:20;96210.56;;;8.76;51.26
706;BME280;21234;48.690;9.016;2023-03-16T11:08:50;96199.88;;;8.58;51.01
706;BME280;21234;48.690;9.016;2023-03-16T11:11:21;96194.91;;;8.66;50.59
706;BME280;21234;48.690;9.016;2023-03-16T11:13:55;96204.25;;;8.87;52.89
706;BME280;21234;48.690;9.016;2023-03-16T11:16:24;96199.88;;;8.98;50.48
706;BME280;21234;48.690;9.016;2023-03-16T11:18:56;96186.88;;;9.00;50.76
706;BME280;21234;48.690;9.016;2023-03-16T11:21:33;96193.38;;;8.99;49.99
706;BME280;21234;48.690;9.016;2023-03-16T11:24:05;96189.25;;;8.96;49.07
706;BME280;21234;48.690;9.016;2023-03-16T11:26:39;96187.50;;;9.19;48.74
706;BME280;21234;48.690;9.016;2023-03-16T11:29:11;96202.44;;;9.04;50.18
706;BME280;21234;48.690;9.016;2023-03-16T11:31:46;96191.00;;;9.02;48.52
706;BME280;21234;48.690;9.016;2023-03-16T11:34:20;96195.25;;;9.27;49.02
706;BME280;21234;48.690;9.016;2023-03-16T11:36:52;96185.84;;;9.18;48.82
706;BME280;21234;48.690;9.016;2023-03-16T11:39:30;96181.50;;;8.88;48.47
706;BME280;21234;48.690;9.016;2023-03-16T11:42:13;96178.50;;;9.01;47.50
706;BME280;21234;48.690;9.016;2023-03-16T11:44:48;96178.78;;;9.17;48.37
706;BME280;21234;48.690;9.016;2023-03-16T11:50:21;96165.75;;;9.30;47.02
706;BME280;21234;48.690;9.016;2023-03-16T11:52:58;96158.91;;;9.44;46.03
706;BME280;21234;48.690;9.016;2023-03-16T11:55:36;96165.03;;;9.52;45.42
706;BME280;21234;48.690;9.016;2023-03-16T11:58:28;96159.69;;;9.40;46.10
706;BME280;21234;48.690;9.016;2023-03-16T12:01:07;96159.00;;;9.33;45.96
706;BME280;21234;48.690;9.016;2023-03-16T12:03:55;96151.84;;;9.43;45.63
706;BME280;21234;48.690;9.016;2023-03-16T12:06:40;96141.00;;;9.60;46.11
706;BME280;21234;48.690;9.016;2023-03-16T12:09:24;96143.97;;;9.42;43.44
706;BME280;21234;48.690;9.016;2023-03-16T12:11:59;96132.78;;;9.22;44.11
706;BME280;21234;48.690;9.016;2023-03-16T12:14:31;96137.56;;;9.31;45.54
706;BME280;21234;48.690;9.016;2023-03-16T12:17:03;96130.09;;;9.72;45.17
706;BME280;21234;48.690;9.016;2023-03-16T12:19:40;96131.28;;;9.81;45.04
706;BME280;21234;48.690;9.016;2023-03-16T12:22:14;96133.00;;;9.87;45.29
706;BME280;21234;48.690;9.016;2023-03-16T12:24:44;96141.81;;;9.44;44.23
706;BME280;21234;48.690;9.016;2023-03-16T12:27:19;96141.91;;;9.49;44.16
706;BME280;21234;48.690;9.016;2023-03-16T12:30:02;96128.34;;;9.66;45.72
706;BME280;21234;48.690;9.016;2023-03-16T12:32:41;96141.25;;;9.75;44.18
706;BME280;21234;48.690;9.016;2023-03-16T12:35:20;96138.84;;;9.96;44.18
706;BME280;21234;48.690;9.016;2023-03-16T12:37:58;96138.44;;;9.87;42.62
706;BME280;21234;48.690;9.016;2023-03-16T12:40:32;96132.84;;;9.77;43.60
706;BME280;21234;48.690;9.016;2023-03-16T12:43:30;96123.34;;;9.74;44.58
706;BME280;21234;48.690;9.016;2023-03-16T12:46:04;96118.03;;;10.01;45.42
706;BME280;21234;48.690;9.016;2023-03-16T12:48:37;96116.16;;;10.46;43.32
706;BME280;21234;48.690;9.016;2023-03-16T12:51:06;96108.78;;;10.41;42.62
706;BME280;21234;48.690;9.016;2023-03-16T12:53:42;96103.22;;;11.01;43.34
706;BME280;21234;48.690;9.016;2023-03-16T12:56:12;96101.50;;;11.22;41.34
706;BME280;21234;48.690;9.016;2023-03-16T12:58:43;96095.09;;;11.33;43.32
706;BME280;21234;48.690;9.016;2023-03-16T13:01:13;96095.81;;;11.56;41.10
706;BME280;21234;48.690;9.016;2023-03-16T13:03:43;96093.47;;;11.74;40.59
706;BME280;21234;48.690;9.016;2023-03-16T13:06:18;96093.84;;;11.83;40.18
706;BME280;21234;48.690;9.016;2023-03-16T13:08:48;96093.00;;;11.77;39.30
706;BME280;21234;48.690;9.016;2023-03-16T13:11:16;96094.78;;;12.04;38.91
706;BME280;21234;48.690;9.016;2023-03-16T13:13:47;96106.44;;;12.41;38.71
706;BME280;21234;48.690;9.016;2023-03-16T13:16:22;96102.56;;;12.27;37.79
706;BME280;21234;48.690;9.016;2023-03-16T13:18:51;96093.38;;;12.49;36.59
706;BME280;21234;48.690;9.016;2023-03-16T13:21:20;96093.09;;;13.23;35.72
706;BME280;21234;48.690;9.016;2023-03-16T13:23:56;96089.53;;;13.48;34.94
706;BME280;21234;48.690;9.016;2023-03-16T13:26:38;96094.06;;;14.43;33.63
706;BME280;21234;48.690;9.016;2023-03-16T13:29:19;96090.88;;;16.79;32.78
706;BME280;21234;48.690;9.016;2023-03-16T13:31:46;96075.28;;;16.94;29.97
706;BME280;21234;48.690;9.016;2023-03-16T13:34:19;96083.38;;;15.45;30.41
706;BME280;21234;48.690;9.016;2023-03-16T13:36:49;96073.38;;;16.94;29.75
706;BME280;21234;48.690;9.016;2023-03-16T13:39:19;96077.78;;;16.24;28.90
706;BME280;21234;48.690;9.016;2023-03-16T13:41:58;96065.94;;;15.99;30.31
706;BME280;21234;48.690;9.016;2023-03-16T13:44:26;96064.94;;;16.43;28.94